Fire Weather Observation
Issued by NWS Grand Junction, CO

Home | Current Version | Previous Version | Graphics & Text | Print | Product List | Glossary On
Versions: 1 2 3 4 5 6 7 8 9 10 11 12 13 14 15 16 17 18 19 20 21 22 23 24 25 26 27 28 29 30 31 32 33 34 35 36 37 38 39 40 41 42 43 44 45 46 47 48 49 50
000
SHUS65 KGJT 252015
FWOGJT

DAILY FIRE WEATHER OBSERVATION
NATIONAL WEATHER SERVICE GRAND JUNCTION CO
215 PM MDT FRI JUL 25 2014

STATE OF THE WEATHER (W)               9
DRY BULB TEMPERATURE                   73   DEGREES FAHRENHEIT
RELATIVE HUMIDITY (RH)                 64   PERCENT
LIGHTNING ACTIVITY LEVEL
  (LAL - MIDNIGHT TO 2 PM)             4
WIND DIRECTION                         180  DEGREES (C IF CALM)
WIND SPEED                             10   MPH
MAX TEMP (2 PM - 2 PM)                 94   DEGREES FAHRENHEIT
MIN TEMP (2 PM - 2 PM)                 67   DEGREES FAHRENHEIT
MAX RH (2 PM - 2 PM)                   64   PERCENT
MIN RH (2 PM - 2 PM)                   20   PERCENT
PCPN DURATION                          2.0  HOURS
PCPN AMT (2 PM - 2 PM)                 0.02 INCHES
LAL (2 PM - 2 PM)                      4

$$

METAR KGJT 251953Z 16009KT 10SM -TSRA SCT095 BKN120 23/16 A3013
      RMK AO2 TSB1856 SLP132 TS OVHD MOV LTL OCNL LTGCG P0002
      T02280156


USA.gov is the U.S. government's official web portal to all federal, state and local government web resources and services.